sensor_id;sensor_type;location;lat;lon;timestamp;P1;durP1;ratioP1;P2;durP2;ratioP2
30543;SDS011;43388;46.308;4.600;2023-05-07T00:01:44;6.38;;;3.58;;
30543;SDS011;43388;46.308;4.600;2023-05-07T00:04:10;4.07;;;3.67;;
30543;SDS011;43388;46.308;4.600;2023-05-07T00:06:36;6.85;;;3.78;;
30543;SDS011;43388;46.308;4.600;2023-05-07T00:09:02;3.35;;;2.90;;
30543;SDS011;43388;46.308;4.600;2023-05-07T00:11:29;3.72;;;2.00;;
30543;SDS011;43388;46.308;4.600;2023-05-07T00:13:55;4.53;;;1.67;;
30543;SDS011;43388;46.308;4.600;2023-05-07T00:16:21;1.90;;;1.80;;
30543;SDS011;43388;46.308;4.600;2023-05-07T00:18:47;1.98;;;1.73;;
30543;SDS011;43388;46.308;4.600;2023-05-07T00:21:13;5.97;;;1.85;;
30543;SDS011;43388;46.308;4.600;2023-05-07T00:23:39;3.10;;;1.80;;
30543;SDS011;43388;46.308;4.600;2023-05-07T00:26:05;2.97;;;1.98;;
30543;SDS011;43388;46.308;4.600;2023-05-07T00:28:31;9.48;;;2.35;;
30543;SDS011;43388;46.308;4.600;2023-05-07T00:30:57;1.65;;;1.55;;
30543;SDS011;43388;46.308;4.600;2023-05-07T00:33:23;1.80;;;1.70;;
30543;SDS011;43388;46.308;4.600;2023-05-07T00:35:51;2.97;;;1.65;;
30543;SDS011;43388;46.308;4.600;2023-05-07T00:38:19;2.67;;;1.70;;
30543;SDS011;43388;46.308;4.600;2023-05-07T00:40:45;2.20;;;1.90;;
30543;SDS011;43388;46.308;4.600;2023-05-07T00:43:11;4.85;;;1.50;;
30543;SDS011;43388;46.308;4.600;2023-05-07T00:45:37;4.28;;;1.65;;
30543;SDS011;43388;46.308;4.600;2023-05-07T00:48:04;2.38;;;1.50;;
30543;SDS011;43388;46.308;4.600;2023-05-07T00:50:30;2.70;;;1.60;;
30543;SDS011;43388;46.308;4.600;2023-05-07T00:52:56;2.42;;;1.63;;
30543;SDS011;43388;46.308;4.600;2023-05-07T00:55:23;1.70;;;1.25;;
30543;SDS011;43388;46.308;4.600;2023-05-07T00:57:50;1.90;;;1.52;;
30543;SDS011;43388;46.308;4.600;2023-05-07T01:00:16;3.33;;;1.70;;
30543;SDS011;43388;46.308;4.600;2023-05-07T01:02:43;1.30;;;1.20;;
30543;SDS011;43388;46.308;4.600;2023-05-07T01:05:10;1.40;;;1.27;;
30543;SDS011;43388;46.308;4.600;2023-05-07T01:07:36;2.22;;;2.03;;
30543;SDS011;43388;46.308;4.600;2023-05-07T01:10:03;2.63;;;1.63;;
30543;SDS011;43388;46.308;4.600;2023-05-07T01:12:29;2.78;;;1.50;;
30543;SDS011;43388;46.308;4.600;2023-05-07T01:14:56;1.42;;;1.30;;
30543;SDS011;43388;46.308;4.600;2023-05-07T01:17:22;1.33;;;1.23;;
30543;SDS011;43388;46.308;4.600;2023-05-07T01:19:48;1.50;;;1.40;;
30543;SDS011;43388;46.308;4.600;2023-05-07T01:22:15;1.60;;;1.50;;
30543;SDS011;43388;46.308;4.600;2023-05-07T01:24:42;1.23;;;1.23;;
30543;SDS011;43388;46.308;4.600;2023-05-07T01:27:08;6.07;;;1.63;;
30543;SDS011;43388;46.308;4.600;2023-05-07T01:29:34;1.45;;;1.35;;
30543;SDS011;43388;46.308;4.600;2023-05-07T01:32:00;2.25;;;1.40;;
30543;SDS011;43388;46.308;4.600;2023-05-07T01:34:27;2.97;;;1.70;;
30543;SDS011;43388;46.308;4.600;2023-05-07T01:36:54;1.63;;;1.50;;
30543;SDS011;43388;46.308;4.600;2023-05-07T01:39:22;4.90;;;1.50;;
30543;SDS011;43388;46.308;4.600;2023-05-07T01:41:48;2.50;;;2.30;;
30543;SDS011;43388;46.308;4.600;2023-05-07T01:44:14;2.38;;;1.77;;
30543;SDS011;43388;46.308;4.600;2023-05-07T01:46:41;2.55;;;1.40;;
30543;SDS011;43388;46.308;4.600;2023-05-07T01:49:07;4.47;;;1.90;;
30543;SDS011;43388;46.308;4.600;2023-05-07T01:51:33;3.20;;;1.77;;
30543;SDS011;43388;46.308;4.600;2023-05-07T01:53:59;1.60;;;1.50;;
30543;SDS011;43388;46.308;4.600;2023-05-07T01:56:26;2.17;;;1.50;;
30543;SDS011;43388;46.308;4.600;2023-05-07T01:58:52;1.63;;;1.52;;
30543;SDS011;43388;46.308;4.600;2023-05-07T02:01:18;3.53;;;1.67;;
30543;SDS011;43388;46.308;4.600;2023-05-07T02:03:44;1.50;;;1.40;;
30543;SDS011;43388;46.308;4.600;2023-05-07T02:06:10;2.00;;;1.58;;
30543;SDS011;43388;46.308;4.600;2023-05-07T02:08:36;1.73;;;1.42;;
30543;SDS011;43388;46.308;4.600;2023-05-07T02:11:02;1.77;;;1.67;;
30543;SDS011;43388;46.308;4.600;2023-05-07T02:13:29;2.33;;;1.90;;
30543;SDS011;43388;46.308;4.600;2023-05-07T02:15:55;1.58;;;1.50;;
30543;SDS011;43388;46.308;4.600;2023-05-07T02:18:21;1.88;;;1.58;;
30543;SDS011;43388;46.308;4.600;2023-05-07T02:20:47;2.38;;;1.80;;
30543;SDS011;43388;46.308;4.600;2023-05-07T02:23:13;1.52;;;1.42;;
30543;SDS011;43388;46.308;4.600;2023-05-07T02:25:39;4.85;;;1.77;;
30543;SDS011;43388;46.308;4.600;2023-05-07T02:28:06;2.15;;;1.38;;
30543;SDS011;43388;46.308;4.600;2023-05-07T02:30:32;4.43;;;1.35;;
30543;SDS011;43388;46.308;4.600;2023-05-07T02:32:58;1.70;;;1.60;;
30543;SDS011;43388;46.308;4.600;2023-05-07T02:35:24;1.63;;;1.52;;
30543;SDS011;43388;46.308;4.600;2023-05-07T02:37:51;2.35;;;1.33;;
30543;SDS011;43388;46.308;4.600;2023-05-07T02:40:17;8.98;;;1.77;;
30543;SDS011;43388;46.308;4.600;2023-05-07T02:42:43;2.92;;;1.30;;
30543;SDS011;43388;46.308;4.600;2023-05-07T02:45:09;1.58;;;1.48;;
30543;SDS011;43388;46.308;4.600;2023-05-07T02:47:35;5.28;;;1.42;;
30543;SDS011;43388;46.308;4.600;2023-05-07T02:50:02;2.30;;;1.60;;
30543;SDS011;43388;46.308;4.600;2023-05-07T02:52:28;2.55;;;2.10;;
30543;SDS011;43388;46.308;4.600;2023-05-07T02:54:54;5.32;;;1.75;;
30543;SDS011;43388;46.308;4.600;2023-05-07T02:57:20;1.65;;;1.50;;
30543;SDS011;43388;46.308;4.600;2023-05-07T02:59:46;1.58;;;1.48;;
30543;SDS011;43388;46.308;4.600;2023-05-07T03:02:13;2.42;;;1.70;;
30543;SDS011;43388;46.308;4.600;2023-05-07T03:04:39;1.77;;;1.67;;
30543;SDS011;43388;46.308;4.600;2023-05-07T03:07:05;2.83;;;1.70;;
30543;SDS011;43388;46.308;4.600;2023-05-07T03:09:31;77.07;;;4.72;;
30543;SDS011;43388;46.308;4.600;2023-05-07T03:11:57;4.00;;;2.42;;
30543;SDS011;43388;46.308;4.600;2023-05-07T03:14:23;3.45;;;2.60;;
30543;SDS011;43388;46.308;4.600;2023-05-07T03:16:49;2.22;;;1.67;;
30543;SDS011;43388;46.308;4.600;2023-05-07T03:19:15;2.42;;;1.67;;
30543;SDS011;43388;46.308;4.600;2023-05-07T03:21:42;2.28;;;1.55;;
30543;SDS011;43388;46.308;4.600;2023-05-07T03:24:08;1.77;;;1.60;;
30543;SDS011;43388;46.308;4.600;2023-05-07T03:26:34;1.92;;;1.83;;
30543;SDS011;43388;46.308;4.600;2023-05-07T03:29:00;2.47;;;1.90;;
30543;SDS011;43388;46.308;4.600;2023-05-07T03:31:26;2.33;;;1.85;;
30543;SDS011;43388;46.308;4.600;2023-05-07T03:36:18;2.05;;;1.52;;
30543;SDS011;43388;46.308;4.600;2023-05-07T03:38:44;2.03;;;1.92;;
30543;SDS011;43388;46.308;4.600;2023-05-07T03:41:11;1.63;;;1.50;;
30543;SDS011;43388;46.308;4.600;2023-05-07T03:43:37;1.83;;;1.50;;
30543;SDS011;43388;46.308;4.600;2023-05-07T03:46:03;2.95;;;1.60;;
30543;SDS011;43388;46.308;4.600;2023-05-07T03:48:29;4.30;;;2.05;;
30543;SDS011;43388;46.308;4.600;2023-05-07T03:50:55;2.90;;;1.75;;
30543;SDS011;43388;46.308;4.600;2023-05-07T03:53:21;2.13;;;1.73;;
30543;SDS011;43388;46.308;4.600;2023-05-07T03:55:47;1.90;;;1.80;;
30543;SDS011;43388;46.308;4.600;2023-05-07T03:58:14;1.73;;;1.63;;
30543;SDS011;43388;46.308;4.600;2023-05-07T04:00:40;3.85;;;1.92;;
30543;SDS011;43388;46.308;4.600;2023-05-07T04:03:06;1.73;;;1.60;;
30543;SDS011;43388;46.308;4.600;2023-05-07T04:05:32;2.28;;;1.98;;
30543;SDS011;43388;46.308;4.600;2023-05-07T04:07:58;1.70;;;1.60;;
30543;SDS011;43388;46.308;4.600;2023-05-07T04:10:25;1.73;;;1.63;;
30543;SDS011;43388;46.308;4.600;2023-05-07T04:12:51;3.42;;;1.50;;
30543;SDS011;43388;46.308;4.600;2023-05-07T04:15:17;3.45;;;1.92;;
30543;SDS011;43388;46.308;4.600;2023-05-07T04:17:43;1.60;;;1.50;;
30543;SDS011;43388;46.308;4.600;2023-05-07T04:20:10;2.10;;;1.65;;
30543;SDS011;43388;46.308;4.600;2023-05-07T04:22:36;3.25;;;1.73;;
30543;SDS011;43388;46.308;4.600;2023-05-07T04:25:02;1.63;;;1.52;;
30543;SDS011;43388;46.308;4.600;2023-05-07T04:27:29;1.50;;;1.42;;
30543;SDS011;43388;46.308;4.600;2023-05-07T04:29:55;1.88;;;1.40;;
30543;SDS011;43388;46.308;4.600;2023-05-07T04:32:21;1.80;;;1.70;;
30543;SDS011;43388;46.308;4.600;2023-05-07T04:34:47;1.90;;;1.45;;
30543;SDS011;43388;46.308;4.600;2023-05-07T04:37:13;1.75;;;1.60;;
30543;SDS011;43388;46.308;4.600;2023-05-07T04:39:39;1.70;;;1.60;;
30543;SDS011;43388;46.308;4.600;2023-05-07T04:42:05;2.25;;;1.85;;
30543;SDS011;43388;46.308;4.600;2023-05-07T04:44:33;1.70;;;1.60;;
30543;SDS011;43388;46.308;4.600;2023-05-07T04:47:00;1.48;;;1.48;;
30543;SDS011;43388;46.308;4.600;2023-05-07T04:49:26;2.80;;;1.40;;
30543;SDS011;43388;46.308;4.600;2023-05-07T04:51:52;3.92;;;1.90;;
30543;SDS011;43388;46.308;4.600;2023-05-07T04:54:18;1.90;;;1.80;;
30543;SDS011;43388;46.308;4.600;2023-05-07T04:56:44;1.77;;;1.67;;
30543;SDS011;43388;46.308;4.600;2023-05-07T04:59:10;2.67;;;1.63;;
30543;SDS011;43388;46.308;4.600;2023-05-07T05:01:36;1.75;;;1.63;;
30543;SDS011;43388;46.308;4.600;2023-05-07T05:04:03;2.35;;;1.60;;
30543;SDS011;43388;46.308;4.600;2023-05-07T05:06:30;2.13;;;1.88;;
30543;SDS011;43388;46.308;4.600;2023-05-07T05:08:56;4.20;;;2.00;;
30543;SDS011;43388;46.308;4.600;2023-05-07T05:11:22;2.85;;;2.22;;
30543;SDS011;43388;46.308;4.600;2023-05-07T05:13:48;3.25;;;2.00;;
30543;SDS011;43388;46.308;4.600;2023-05-07T05:16:15;1.67;;;1.58;;
30543;SDS011;43388;46.308;4.600;2023-05-07T05:18:41;3.28;;;1.60;;
30543;SDS011;43388;46.308;4.600;2023-05-07T05:21:07;2.10;;;2.00;;
30543;SDS011;43388;46.308;4.600;2023-05-07T05:23:33;1.90;;;1.75;;
30543;SDS011;43388;46.308;4.600;2023-05-07T05:25:59;2.30;;;1.70;;
30543;SDS011;43388;46.308;4.600;2023-05-07T05:28:25;2.65;;;1.85;;
30543;SDS011;43388;46.308;4.600;2023-05-07T05:30:52;2.83;;;2.20;;
30543;SDS011;43388;46.308;4.600;2023-05-07T05:33:18;2.03;;;1.83;;
30543;SDS011;43388;46.308;4.600;2023-05-07T05:35:44;1.75;;;1.65;;
30543;SDS011;43388;46.308;4.600;2023-05-07T05:38:10;3.30;;;1.60;;
30543;SDS011;43388;46.308;4.600;2023-05-07T05:40:36;3.53;;;1.95;;
30543;SDS011;43388;46.308;4.600;2023-05-07T05:43:02;1.80;;;1.70;;
30543;SDS011;43388;46.308;4.600;2023-05-07T05:45:29;1.67;;;1.58;;
30543;SDS011;43388;46.308;4.600;2023-05-07T05:47:55;2.88;;;1.50;;
30543;SDS011;43388;46.308;4.600;2023-05-07T05:50:22;2.40;;;1.80;;
30543;SDS011;43388;46.308;4.600;2023-05-07T05:52:48;1.75;;;1.65;;
30543;SDS011;43388;46.308;4.600;2023-05-07T05:55:14;2.55;;;2.05;;
30543;SDS011;43388;46.308;4.600;2023-05-07T05:57:40;1.67;;;1.58;;
30543;SDS011;43388;46.308;4.600;2023-05-07T06:00:06;1.67;;;1.58;;
30543;SDS011;43388;46.308;4.600;2023-05-07T06:02:33;3.65;;;1.90;;
30543;SDS011;43388;46.308;4.600;2023-05-07T06:04:59;2.10;;;1.60;;
30543;SDS011;43388;46.308;4.600;2023-05-07T06:07:25;3.03;;;1.90;;
30543;SDS011;43388;46.308;4.600;2023-05-07T06:09:51;1.88;;;1.77;;
30543;SDS011;43388;46.308;4.600;2023-05-07T06:12:17;3.20;;;1.50;;
30543;SDS011;43388;46.308;4.600;2023-05-07T06:14:43;2.10;;;1.90;;
30543;SDS011;43388;46.308;4.600;2023-05-07T06:17:09;2.22;;;1.38;;
30543;SDS011;43388;46.308;4.600;2023-05-07T06:19:35;2.20;;;1.80;;
30543;SDS011;43388;46.308;4.600;2023-05-07T06:22:01;3.40;;;2.28;;
30543;SDS011;43388;46.308;4.600;2023-05-07T06:24:28;1.77;;;1.65;;
30543;SDS011;43388;46.308;4.600;2023-05-07T06:26:54;2.88;;;1.77;;
30543;SDS011;43388;46.308;4.600;2023-05-07T06:29:20;1.80;;;1.70;;
30543;SDS011;43388;46.308;4.600;2023-05-07T06:31:46;1.63;;;1.52;;
30543;SDS011;43388;46.308;4.600;2023-05-07T06:34:12;4.03;;;1.88;;
30543;SDS011;43388;46.308;4.600;2023-05-07T06:36:41;1.55;;;1.40;;
30543;SDS011;43388;46.308;4.600;2023-05-07T06:39:07;2.33;;;1.50;;
30543;SDS011;43388;46.308;4.600;2023-05-07T06:41:33;1.90;;;1.50;;
30543;SDS011;43388;46.308;4.600;2023-05-07T06:44:00;3.10;;;2.05;;
30543;SDS011;43388;46.308;4.600;2023-05-07T06:46:27;3.25;;;1.83;;
30543;SDS011;43388;46.308;4.600;2023-05-07T06:48:53;2.92;;;2.05;;
30543;SDS011;43388;46.308;4.600;2023-05-07T06:51:19;4.72;;;2.38;;
30543;SDS011;43388;46.308;4.600;2023-05-07T06:53:45;6.22;;;1.50;;
30543;SDS011;43388;46.308;4.600;2023-05-07T06:56:11;1.65;;;1.50;;
30543;SDS011;43388;46.308;4.600;2023-05-07T06:58:37;2.95;;;2.08;;
30543;SDS011;43388;46.308;4.600;2023-05-07T07:01:03;3.75;;;1.75;;
30543;SDS011;43388;46.308;4.600;2023-05-07T07:03:29;2.17;;;1.98;;
30543;SDS011;43388;46.308;4.600;2023-05-07T07:05:55;1.60;;;1.48;;
30543;SDS011;43388;46.308;4.600;2023-05-07T07:08:22;3.30;;;1.50;;
30543;SDS011;43388;46.308;4.600;2023-05-07T07:10:48;3.05;;;1.80;;
30543;SDS011;43388;46.308;4.600;2023-05-07T07:13:14;1.95;;;1.67;;
30543;SDS011;43388;46.308;4.600;2023-05-07T07:15:40;5.00;;;1.88;;
30543;SDS011;43388;46.308;4.600;2023-05-07T07:18:06;1.60;;;1.50;;
30543;SDS011;43388;46.308;4.600;2023-05-07T07:20:32;1.90;;;1.80;;
30543;SDS011;43388;46.308;4.600;2023-05-07T07:22:58;2.47;;;1.90;;
30543;SDS011;43388;46.308;4.600;2023-05-07T07:25:24;5.28;;;1.75;;
30543;SDS011;43388;46.308;4.600;2023-05-07T07:27:50;2.90;;;1.52;;
30543;SDS011;43388;46.308;4.600;2023-05-07T07:30:16;6.15;;;2.00;;
30543;SDS011;43388;46.308;4.600;2023-05-07T07:32:43;1.75;;;1.50;;
30543;SDS011;43388;46.308;4.600;2023-05-07T07:35:09;1.58;;;1.48;;
30543;SDS011;43388;46.308;4.600;2023-05-07T07:37:35;3.70;;;1.50;;
30543;SDS011;43388;46.308;4.600;2023-05-07T07:40:01;4.40;;;1.80;;
30543;SDS011;43388;46.308;4.600;2023-05-07T07:42:28;3.08;;;1.80;;
30543;SDS011;43388;46.308;4.600;2023-05-07T07:44:54;3.58;;;2.95;;
30543;SDS011;43388;46.308;4.600;2023-05-07T07:47:22;3.78;;;2.20;;
30543;SDS011;43388;46.308;4.600;2023-05-07T07:49:48;1.88;;;1.75;;
30543;SDS011;43388;46.308;4.600;2023-05-07T07:52:14;3.42;;;2.65;;
30543;SDS011;43388;46.308;4.600;2023-05-07T07:54:40;6.20;;;3.50;;
30543;SDS011;43388;46.308;4.600;2023-05-07T07:57:06;3.63;;;2.42;;
30543;SDS011;43388;46.308;4.600;2023-05-07T07:59:32;6.80;;;3.00;;
30543;SDS011;43388;46.308;4.600;2023-05-07T08:01:58;16.13;;;5.53;;
30543;SDS011;43388;46.308;4.600;2023-05-07T08:04:24;11.82;;;3.92;;
30543;SDS011;43388;46.308;4.600;2023-05-07T08:06:50;14.05;;;4.53;;
30543;SDS011;43388;46.308;4.600;2023-05-07T08:09:16;35.20;;;9.23;;
30543;SDS011;43388;46.308;4.600;2023-05-07T08:11:42;49.63;;;13.77;;
30543;SDS011;43388;46.308;4.600;2023-05-07T08:14:08;70.30;;;20.05;;
30543;SDS011;43388;46.308;4.600;2023-05-07T08:16:34;38.17;;;9.77;;
30543;SDS011;43388;46.308;4.600;2023-05-07T08:19:00;45.00;;;10.68;;
30543;SDS011;43388;46.308;4.600;2023-05-07T08:21:26;31.80;;;7.25;;
30543;SDS011;43388;46.308;4.600;2023-05-07T08:23:52;35.80;;;10.43;;
30543;SDS011;43388;46.308;4.600;2023-05-07T08:26:18;44.55;;;13.77;;
30543;SDS011;43388;46.308;4.600;2023-05-07T08:28:45;17.88;;;5.75;;
30543;SDS011;43388;46.308;4.600;2023-05-07T08:31:11;17.48;;;5.82;;
30543;SDS011;43388;46.308;4.600;2023-05-07T08:33:37;37.50;;;12.23;;
30543;SDS011;43388;46.308;4.600;2023-05-07T08:36:03;13.90;;;5.65;;
30543;SDS011;43388;46.308;4.600;2023-05-07T08:38:30;2.55;;;2.10;;
30543;SDS011;43388;46.308;4.600;2023-05-07T08:40:56;4.80;;;2.17;;
30543;SDS011;43388;46.308;4.600;2023-05-07T08:43:22;4.93;;;2.58;;
30543;SDS011;43388;46.308;4.600;2023-05-07T08:45:53;2.15;;;2.05;;
30543;SDS011;43388;46.308;4.600;2023-05-07T08:48:21;3.58;;;2.58;;
30543;SDS011;43388;46.308;4.600;2023-05-07T08:50:47;5.78;;;2.63;;
30543;SDS011;43388;46.308;4.600;2023-05-07T08:53:13;46.40;;;16.92;;
30543;SDS011;43388;46.308;4.600;2023-05-07T08:55:41;5.35;;;3.17;;
30543;SDS011;43388;46.308;4.600;2023-05-07T08:58:07;11.65;;;5.30;;
30543;SDS011;43388;46.308;4.600;2023-05-07T09:00:33;9.10;;;2.90;;
30543;SDS011;43388;46.308;4.600;2023-05-07T09:03:00;4.82;;;2.30;;
30543;SDS011;43388;46.308;4.600;2023-05-07T09:05:26;6.15;;;2.90;;
30543;SDS011;43388;46.308;4.600;2023-05-07T09:07:52;17.83;;;6.20;;
30543;SDS011;43388;46.308;4.600;2023-05-07T09:10:20;28.38;;;7.90;;
30543;SDS011;43388;46.308;4.600;2023-05-07T09:12:46;12.68;;;4.22;;
30543;SDS011;43388;46.308;4.600;2023-05-07T09:15:13;4.80;;;2.72;;
30543;SDS011;43388;46.308;4.600;2023-05-07T09:17:39;2.75;;;2.05;;
30543;SDS011;43388;46.308;4.600;2023-05-07T09:20:07;2.85;;;2.03;;
30543;SDS011;43388;46.308;4.600;2023-05-07T09:22:35;1.90;;;1.73;;
30543;SDS011;43388;46.308;4.600;2023-05-07T09:25:02;1.70;;;1.50;;
30543;SDS011;43388;46.308;4.600;2023-05-07T09:27:28;1.67;;;1.58;;
30543;SDS011;43388;46.308;4.600;2023-05-07T09:29:54;1.75;;;1.65;;
30543;SDS011;43388;46.308;4.600;2023-05-07T09:32:20;2.15;;;1.40;;
30543;SDS011;43388;46.308;4.600;2023-05-07T09:34:46;2.45;;;1.58;;
30543;SDS011;43388;46.308;4.600;2023-05-07T09:37:13;1.60;;;1.50;;
30543;SDS011;43388;46.308;4.600;2023-05-07T09:39:43;2.17;;;1.40;;
30543;SDS011;43388;46.308;4.600;2023-05-07T09:42:09;1.60;;;1.50;;
30543;SDS011;43388;46.308;4.600;2023-05-07T09:44:36;1.50;;;1.40;;
30543;SDS011;43388;46.308;4.600;2023-05-07T09:47:04;1.88;;;1.77;;
30543;SDS011;43388;46.308;4.600;2023-05-07T09:49:31;1.98;;;1.70;;
30543;SDS011;43388;46.308;4.600;2023-05-07T09:52:00;1.50;;;1.50;;
30543;SDS011;43388;46.308;4.600;2023-05-07T09:54:26;1.63;;;1.52;;
30543;SDS011;43388;46.308;4.600;2023-05-07T09:56:55;1.40;;;1.30;;
30543;SDS011;43388;46.308;4.600;2023-05-07T09:59:22;1.50;;;1.42;;
30543;SDS011;43388;46.308;4.600;2023-05-07T10:01:48;2.20;;;1.55;;
30543;SDS011;43388;46.308;4.600;2023-05-07T10:04:14;2.97;;;1.70;;
30543;SDS011;43388;46.308;4.600;2023-05-07T10:06:40;1.80;;;1.70;;
30543;SDS011;43388;46.308;4.600;2023-05-07T10:09:07;1.80;;;1.70;;
30543;SDS011;43388;46.308;4.600;2023-05-07T10:11:34;2.22;;;1.85;;
30543;SDS011;43388;46.308;4.600;2023-05-07T10:14:01;1.90;;;1.80;;
30543;SDS011;43388;46.308;4.600;2023-05-07T10:16:29;2.05;;;1.95;;
30543;SDS011;43388;46.308;4.600;2023-05-07T10:18:57;2.13;;;1.92;;
30543;SDS011;43388;46.308;4.600;2023-05-07T10:21:23;1.98;;;1.88;;
30543;SDS011;43388;46.308;4.600;2023-05-07T10:23:54;2.13;;;1.92;;
30543;SDS011;43388;46.308;4.600;2023-05-07T10:26:22;2.10;;;1.90;;
30543;SDS011;43388;46.308;4.600;2023-05-07T10:28:50;2.85;;;2.03;;
30543;SDS011;43388;46.308;4.600;2023-05-07T10:31:33;2.30;;;2.13;;
30543;SDS011;43388;46.308;4.600;2023-05-07T10:34:02;2.20;;;2.10;;
30543;SDS011;43388;46.308;4.600;2023-05-07T10:36:33;2.65;;;1.88;;
30543;SDS011;43388;46.308;4.600;2023-05-07T10:38:59;2.53;;;2.33;;
30543;SDS011;43388;46.308;4.600;2023-05-07T10:41:25;2.30;;;2.00;;
30543;SDS011;43388;46.308;4.600;2023-05-07T10:43:51;2.22;;;1.83;;
30543;SDS011;43388;46.308;4.600;2023-05-07T10:46:18;2.22;;;2.05;;
30543;SDS011;43388;46.308;4.600;2023-05-07T10:51:30;1.92;;;1.83;;
30543;SDS011;43388;46.308;4.600;2023-05-07T10:56:36;2.60;;;1.80;;
30543;SDS011;43388;46.308;4.600;2023-05-07T11:01:56;3.50;;;1.77;;
30543;SDS011;43388;46.308;4.600;2023-05-07T11:04:23;1.88;;;1.77;;
30543;SDS011;43388;46.308;4.600;2023-05-07T11:15:08;1.73;;;1.48;;
30543;SDS011;43388;46.308;4.600;2023-05-07T11:17:34;2.45;;;1.70;;
30543;SDS011;43388;46.308;4.600;2023-05-07T11:20:01;1.60;;;1.50;;
30543;SDS011;43388;46.308;4.600;2023-05-07T11:25:04;2.20;;;1.90;;
30543;SDS011;43388;46.308;4.600;2023-05-07T11:27:31;2.80;;;1.77;;
30543;SDS011;43388;46.308;4.600;2023-05-07T11:29:57;2.17;;;2.03;;
30543;SDS011;43388;46.308;4.600;2023-05-07T11:32:23;2.78;;;2.03;;
30543;SDS011;43388;46.308;4.600;2023-05-07T11:34:53;2.00;;;1.90;;
30543;SDS011;43388;46.308;4.600;2023-05-07T11:37:20;6.15;;;1.70;;
30543;SDS011;43388;46.308;4.600;2023-05-07T11:39:46;2.10;;;1.73;;
30543;SDS011;43388;46.308;4.600;2023-05-07T11:42:31;2.08;;;1.92;;
30543;SDS011;43388;46.308;4.600;2023-05-07T11:44:57;3.28;;;1.90;;
30543;SDS011;43388;46.308;4.600;2023-05-07T11:47:24;2.28;;;1.80;;
30543;SDS011;43388;46.308;4.600;2023-05-07T11:49:51;2.35;;;2.15;;
30543;SDS011;43388;46.308;4.600;2023-05-07T11:52:17;1.92;;;1.70;;
30543;SDS011;43388;46.308;4.600;2023-05-07T11:54:53;1.80;;;1.70;;
30543;SDS011;43388;46.308;4.600;2023-05-07T11:57:20;2.72;;;1.90;;
30543;SDS011;43388;46.308;4.600;2023-05-07T11:59:46;1.70;;;1.60;;
30543;SDS011;43388;46.308;4.600;2023-05-07T12:02:15;2.00;;;1.90;;
30543;SDS011;43388;46.308;4.600;2023-05-07T12:04:41;2.03;;;1.92;;
30543;SDS011;43388;46.308;4.600;2023-05-07T12:07:16;3.00;;;1.80;;
30543;SDS011;43388;46.308;4.600;2023-05-07T12:09:43;2.45;;;1.60;;
30543;SDS011;43388;46.308;4.600;2023-05-07T12:12:09;1.50;;;1.40;;
30543;SDS011;43388;46.308;4.600;2023-05-07T12:14:39;2.47;;;1.90;;
30543;SDS011;43388;46.308;4.600;2023-05-07T12:17:05;2.35;;;2.20;;
30543;SDS011;43388;46.308;4.600;2023-05-07T12:19:33;3.63;;;1.77;;
30543;SDS011;43388;46.308;4.600;2023-05-07T12:21:59;1.83;;;1.63;;
30543;SDS011;43388;46.308;4.600;2023-05-07T12:24:25;1.92;;;1.60;;
30543;SDS011;43388;46.308;4.600;2023-05-07T12:26:52;2.58;;;2.00;;
30543;SDS011;43388;46.308;4.600;2023-05-07T12:29:21;2.83;;;1.63;;
30543;SDS011;43388;46.308;4.600;2023-05-07T12:31:47;1.75;;;1.65;;
30543;SDS011;43388;46.308;4.600;2023-05-07T12:34:15;2.08;;;1.65;;
30543;SDS011;43388;46.308;4.600;2023-05-07T12:36:41;2.08;;;1.90;;
30543;SDS011;43388;46.308;4.600;2023-05-07T12:39:07;2.15;;;1.83;;
30543;SDS011;43388;46.308;4.600;2023-05-07T12:41:52;1.70;;;1.60;;
30543;SDS011;43388;46.308;4.600;2023-05-07T12:44:21;2.13;;;1.92;;
30543;SDS011;43388;46.308;4.600;2023-05-07T12:46:47;2.00;;;1.60;;
30543;SDS011;43388;46.308;4.600;2023-05-07T12:49:13;2.08;;;1.90;;
30543;SDS011;43388;46.308;4.600;2023-05-07T12:51:39;1.63;;;1.52;;
30543;SDS011;43388;46.308;4.600;2023-05-07T12:54:05;3.00;;;1.48;;
30543;SDS011;43388;46.308;4.600;2023-05-07T12:56:31;1.60;;;1.50;;
30543;SDS011;43388;46.308;4.600;2023-05-07T12:58:57;1.70;;;1.60;;
30543;SDS011;43388;46.308;4.600;2023-05-07T13:01:28;1.30;;;1.30;;
30543;SDS011;43388;46.308;4.600;2023-05-07T13:03:54;3.85;;;1.77;;
30543;SDS011;43388;46.308;4.600;2023-05-07T13:06:20;1.70;;;1.60;;
30543;SDS011;43388;46.308;4.600;2023-05-07T13:08:46;2.05;;;1.83;;
30543;SDS011;43388;46.308;4.600;2023-05-07T13:11:14;1.55;;;1.48;;
30543;SDS011;43388;46.308;4.600;2023-05-07T13:13:40;1.73;;;1.63;;
30543;SDS011;43388;46.308;4.600;2023-05-07T13:16:07;1.75;;;1.58;;
30543;SDS011;43388;46.308;4.600;2023-05-07T13:18:33;2.15;;;1.25;;
30543;SDS011;43388;46.308;4.600;2023-05-07T13:21:00;5.18;;;1.42;;
30543;SDS011;43388;46.308;4.600;2023-05-07T13:23:27;1.77;;;1.67;;
30543;SDS011;43388;46.308;4.600;2023-05-07T13:25:53;1.63;;;1.52;;
30543;SDS011;43388;46.308;4.600;2023-05-07T13:28:20;1.80;;;1.70;;
30543;SDS011;43388;46.308;4.600;2023-05-07T13:30:46;2.40;;;1.45;;
30543;SDS011;43388;46.308;4.600;2023-05-07T13:33:13;1.85;;;1.75;;
30543;SDS011;43388;46.308;4.600;2023-05-07T13:35:40;1.40;;;1.30;;
30543;SDS011;43388;46.308;4.600;2023-05-07T13:38:06;1.60;;;1.60;;
30543;SDS011;43388;46.308;4.600;2023-05-07T13:40:33;1.40;;;1.30;;
30543;SDS011;43388;46.308;4.600;2023-05-07T13:42:59;1.30;;;1.30;;
30543;SDS011;43388;46.308;4.600;2023-05-07T13:45:28;1.63;;;1.52;;
30543;SDS011;43388;46.308;4.600;2023-05-07T13:47:55;1.60;;;1.50;;
30543;SDS011;43388;46.308;4.600;2023-05-07T13:50:21;1.65;;;1.55;;
30543;SDS011;43388;46.308;4.600;2023-05-07T13:52:47;1.50;;;1.42;;
30543;SDS011;43388;46.308;4.600;2023-05-07T13:55:17;1.40;;;1.20;;
30543;SDS011;43388;46.308;4.600;2023-05-07T13:57:43;1.67;;;1.58;;
30543;SDS011;43388;46.308;4.600;2023-05-07T14:00:09;3.15;;;1.60;;
30543;SDS011;43388;46.308;4.600;2023-05-07T14:02:35;2.70;;;1.25;;
30543;SDS011;43388;46.308;4.600;2023-05-07T14:05:01;1.70;;;1.60;;
30543;SDS011;43388;46.308;4.600;2023-05-07T14:07:27;1.75;;;1.38;;
30543;SDS011;43388;46.308;4.600;2023-05-07T14:09:54;1.52;;;1.42;;
30543;SDS011;43388;46.308;4.600;2023-05-07T14:12:20;1.50;;;1.40;;
30543;SDS011;43388;46.308;4.600;2023-05-07T14:14:46;2.35;;;1.40;;
30543;SDS011;43388;46.308;4.600;2023-05-07T14:17:12;3.85;;;1.60;;
30543;SDS011;43388;46.308;4.600;2023-05-07T14:19:38;3.80;;;1.38;;
30543;SDS011;43388;46.308;4.600;2023-05-07T14:22:04;1.85;;;1.73;;
30543;SDS011;43388;46.308;4.600;2023-05-07T14:24:30;1.90;;;1.58;;
30543;SDS011;43388;46.308;4.600;2023-05-07T14:26:56;1.83;;;1.67;;
30543;SDS011;43388;46.308;4.600;2023-05-07T14:29:22;1.70;;;1.60;;
30543;SDS011;43388;46.308;4.600;2023-05-07T14:31:48;2.05;;;1.73;;
30543;SDS011;43388;46.308;4.600;2023-05-07T14:34:14;2.35;;;1.48;;
30543;SDS011;43388;46.308;4.600;2023-05-07T14:36:40;1.70;;;1.60;;
30543;SDS011;43388;46.308;4.600;2023-05-07T14:39:06;1.55;;;1.40;;
30543;SDS011;43388;46.308;4.600;2023-05-07T14:41:32;1.50;;;1.40;;
30543;SDS011;43388;46.308;4.600;2023-05-07T14:43:58;2.15;;;1.60;;
30543;SDS011;43388;46.308;4.600;2023-05-07T14:46:24;1.50;;;1.40;;
30543;SDS011;43388;46.308;4.600;2023-05-07T14:48:50;1.30;;;1.30;;
30543;SDS011;43388;46.308;4.600;2023-05-07T14:51:16;1.92;;;1.52;;
30543;SDS011;43388;46.308;4.600;2023-05-07T14:53:42;1.90;;;1.60;;
30543;SDS011;43388;46.308;4.600;2023-05-07T14:56:08;2.50;;;1.70;;
30543;SDS011;43388;46.308;4.600;2023-05-07T14:58:34;1.60;;;1.50;;
30543;SDS011;43388;46.308;4.600;2023-05-07T15:01:01;1.60;;;1.50;;
30543;SDS011;43388;46.308;4.600;2023-05-07T15:03:27;1.60;;;1.50;;